sensor_id;sensor_type;location;lat;lon;timestamp;pressure;altitude;pressure_sealevel;temperature
64960;BMP180;51487;52.266;10.542;2023-11-21T00:01:35;100007.00;;;8.50
64960;BMP180;51487;52.266;10.542;2023-11-21T00:04:01;99999.00;;;8.40
64960;BMP180;51487;52.266;10.542;2023-11-21T00:06:27;100005.00;;;8.30
64960;BMP180;51487;52.266;10.542;2023-11-21T00:08:52;100001.00;;;8.40
64960;BMP180;51487;52.266;10.542;2023-11-21T00:11:18;100002.00;;;8.50
64960;BMP180;51487;52.266;10.542;2023-11-21T00:13:43;100004.00;;;8.40
64960;BMP180;51487;52.266;10.542;2023-11-21T00:16:09;100006.00;;;8.50
64960;BMP180;51487;52.266;10.542;2023-11-21T00:18:34;100008.00;;;8.30
64960;BMP180;51487;52.266;10.542;2023-11-21T00:21:01;100004.00;;;8.20
64960;BMP180;51487;52.266;10.542;2023-11-21T00:23:26;100015.00;;;8.30
64960;BMP180;51487;52.266;10.542;2023-11-21T00:25:52;100009.00;;;8.40
64960;BMP180;51487;52.266;10.542;2023-11-21T00:28:17;100005.00;;;8.40
64960;BMP180;51487;52.266;10.542;2023-11-21T00:30:43;100010.00;;;8.40
64960;BMP180;51487;52.266;10.542;2023-11-21T00:33:08;100010.00;;;8.10
64960;BMP180;51487;52.266;10.542;2023-11-21T00:35:34;100018.00;;;8.20
64960;BMP180;51487;52.266;10.542;2023-11-21T00:37:59;100013.00;;;8.20
64960;BMP180;51487;52.266;10.542;2023-11-21T00:40:24;100018.00;;;8.10
64960;BMP180;51487;52.266;10.542;2023-11-21T00:42:50;100019.00;;;8.30
64960;BMP180;51487;52.266;10.542;2023-11-21T00:45:15;100031.00;;;8.20
64960;BMP180;51487;52.266;10.542;2023-11-21T00:47:41;100026.00;;;8.20
64960;BMP180;51487;52.266;10.542;2023-11-21T00:50:08;100031.00;;;8.00
64960;BMP180;51487;52.266;10.542;2023-11-21T00:52:34;100032.00;;;7.90
64960;BMP180;51487;52.266;10.542;2023-11-21T00:55:01;100032.00;;;8.00
64960;BMP180;51487;52.266;10.542;2023-11-21T00:57:28;100040.00;;;8.00
64960;BMP180;51487;52.266;10.542;2023-11-21T00:59:54;100040.00;;;8.10
64960;BMP180;51487;52.266;10.542;2023-11-21T01:02:20;100042.00;;;8.20
64960;BMP180;51487;52.266;10.542;2023-11-21T01:04:45;100040.00;;;8.10
64960;BMP180;51487;52.266;10.542;2023-11-21T01:07:13;100034.00;;;8.00
64960;BMP180;51487;52.266;10.542;2023-11-21T01:09:38;100047.00;;;8.10
64960;BMP180;51487;52.266;10.542;2023-11-21T01:12:04;100042.00;;;8.00
64960;BMP180;51487;52.266;10.542;2023-11-21T01:14:30;100039.00;;;8.00
64960;BMP180;51487;52.266;10.542;2023-11-21T01:16:55;100036.00;;;8.00
64960;BMP180;51487;52.266;10.542;2023-11-21T01:19:21;100044.00;;;7.90
64960;BMP180;51487;52.266;10.542;2023-11-21T01:21:46;100047.00;;;8.00
64960;BMP180;51487;52.266;10.542;2023-11-21T01:24:12;100051.00;;;8.00
64960;BMP180;51487;52.266;10.542;2023-11-21T01:26:37;100046.00;;;8.00
64960;BMP180;51487;52.266;10.542;2023-11-21T01:29:03;100048.00;;;8.00
64960;BMP180;51487;52.266;10.542;2023-11-21T01:31:29;100049.00;;;7.80
64960;BMP180;51487;52.266;10.542;2023-11-21T01:33:55;100052.00;;;7.80
64960;BMP180;51487;52.266;10.542;2023-11-21T01:36:21;100047.00;;;7.90
64960;BMP180;51487;52.266;10.542;2023-11-21T01:38:47;100040.00;;;7.90
64960;BMP180;51487;52.266;10.542;2023-11-21T01:41:15;100043.00;;;8.00
64960;BMP180;51487;52.266;10.542;2023-11-21T01:43:41;100047.00;;;8.00
64960;BMP180;51487;52.266;10.542;2023-11-21T01:46:08;100051.00;;;8.00
64960;BMP180;51487;52.266;10.542;2023-11-21T01:48:34;100052.00;;;8.10
64960;BMP180;51487;52.266;10.542;2023-11-21T01:51:01;100062.00;;;7.90
64960;BMP180;51487;52.266;10.542;2023-11-21T01:53:27;100068.00;;;8.00
64960;BMP180;51487;52.266;10.542;2023-11-21T01:55:55;100061.00;;;8.00
64960;BMP180;51487;52.266;10.542;2023-11-21T01:58:21;100074.00;;;8.00
64960;BMP180;51487;52.266;10.542;2023-11-21T02:00:47;100078.00;;;7.90
64960;BMP180;51487;52.266;10.542;2023-11-21T02:03:16;100082.00;;;7.90
64960;BMP180;51487;52.266;10.542;2023-11-21T02:05:42;100080.00;;;8.00
64960;BMP180;51487;52.266;10.542;2023-11-21T02:08:07;100087.00;;;7.90
64960;BMP180;51487;52.266;10.542;2023-11-21T02:10:35;100078.00;;;8.00
64960;BMP180;51487;52.266;10.542;2023-11-21T02:13:02;100090.00;;;8.10
64960;BMP180;51487;52.266;10.542;2023-11-21T02:15:28;100083.00;;;8.00
64960;BMP180;51487;52.266;10.542;2023-11-21T02:17:54;100079.00;;;8.10
64960;BMP180;51487;52.266;10.542;2023-11-21T02:20:23;100082.00;;;8.00
64960;BMP180;51487;52.266;10.542;2023-11-21T02:22:55;100078.00;;;7.90
64960;BMP180;51487;52.266;10.542;2023-11-21T02:25:29;100080.00;;;8.00
64960;BMP180;51487;52.266;10.542;2023-11-21T02:27:58;100094.00;;;8.00
64960;BMP180;51487;52.266;10.542;2023-11-21T02:30:25;100091.00;;;8.00
64960;BMP180;51487;52.266;10.542;2023-11-21T02:32:53;100095.00;;;7.80
64960;BMP180;51487;52.266;10.542;2023-11-21T02:35:19;100086.00;;;7.90
64960;BMP180;51487;52.266;10.542;2023-11-21T02:37:49;100088.00;;;7.90
64960;BMP180;51487;52.266;10.542;2023-11-21T02:40:15;100088.00;;;8.00
64960;BMP180;51487;52.266;10.542;2023-11-21T02:42:48;100090.00;;;8.00
64960;BMP180;51487;52.266;10.542;2023-11-21T02:45:17;100090.00;;;8.10
64960;BMP180;51487;52.266;10.542;2023-11-21T02:47:44;100096.00;;;8.10
64960;BMP180;51487;52.266;10.542;2023-11-21T02:50:10;100093.00;;;8.00
64960;BMP180;51487;52.266;10.542;2023-11-21T02:52:35;100096.00;;;8.00
64960;BMP180;51487;52.266;10.542;2023-11-21T02:55:02;100100.00;;;8.10
64960;BMP180;51487;52.266;10.542;2023-11-21T02:57:28;100097.00;;;8.10
64960;BMP180;51487;52.266;10.542;2023-11-21T02:59:54;100094.00;;;8.10
64960;BMP180;51487;52.266;10.542;2023-11-21T03:02:20;100106.00;;;8.10
64960;BMP180;51487;52.266;10.542;2023-11-21T03:04:46;100103.00;;;8.10
64960;BMP180;51487;52.266;10.542;2023-11-21T03:07:14;100114.00;;;8.10
64960;BMP180;51487;52.266;10.542;2023-11-21T03:09:40;100108.00;;;8.10
64960;BMP180;51487;52.266;10.542;2023-11-21T03:12:06;100114.00;;;8.10
64960;BMP180;51487;52.266;10.542;2023-11-21T03:14:32;100113.00;;;8.20
64960;BMP180;51487;52.266;10.542;2023-11-21T03:16:57;100122.00;;;8.10
64960;BMP180;51487;52.266;10.542;2023-11-21T03:19:23;100119.00;;;8.10
64960;BMP180;51487;52.266;10.542;2023-11-21T03:21:49;100120.00;;;8.20
64960;BMP180;51487;52.266;10.542;2023-11-21T03:24:14;100123.00;;;8.10
64960;BMP180;51487;52.266;10.542;2023-11-21T03:26:44;100125.00;;;8.10
64960;BMP180;51487;52.266;10.542;2023-11-21T03:29:11;100120.00;;;8.10
64960;BMP180;51487;52.266;10.542;2023-11-21T03:31:38;100119.00;;;8.20
64960;BMP180;51487;52.266;10.542;2023-11-21T03:34:03;100121.00;;;8.00
64960;BMP180;51487;52.266;10.542;2023-11-21T03:36:29;100126.00;;;8.00
64960;BMP180;51487;52.266;10.542;2023-11-21T03:38:54;100134.00;;;8.10
64960;BMP180;51487;52.266;10.542;2023-11-21T03:41:20;100134.00;;;8.20
64960;BMP180;51487;52.266;10.542;2023-11-21T03:43:46;100138.00;;;8.10
64960;BMP180;51487;52.266;10.542;2023-11-21T03:46:11;100136.00;;;8.00
64960;BMP180;51487;52.266;10.542;2023-11-21T03:48:38;100138.00;;;8.10
64960;BMP180;51487;52.266;10.542;2023-11-21T03:51:04;100151.00;;;8.10
64960;BMP180;51487;52.266;10.542;2023-11-21T03:53:29;100147.00;;;8.00
64960;BMP180;51487;52.266;10.542;2023-11-21T03:55:55;100156.00;;;8.10
64960;BMP180;51487;52.266;10.542;2023-11-21T03:58:20;100156.00;;;8.10
64960;BMP180;51487;52.266;10.542;2023-11-21T04:00:47;100150.00;;;8.10
64960;BMP180;51487;52.266;10.542;2023-11-21T04:03:14;100148.00;;;8.00
64960;BMP180;51487;52.266;10.542;2023-11-21T04:05:40;100152.00;;;8.00
64960;BMP180;51487;52.266;10.542;2023-11-21T04:08:06;100163.00;;;8.20
64960;BMP180;51487;52.266;10.542;2023-11-21T04:10:32;100157.00;;;8.20
64960;BMP180;51487;52.266;10.542;2023-11-21T04:12:58;100161.00;;;8.20
64960;BMP180;51487;52.266;10.542;2023-11-21T04:15:24;100164.00;;;8.20
64960;BMP180;51487;52.266;10.542;2023-11-21T04:17:50;100166.00;;;8.30
64960;BMP180;51487;52.266;10.542;2023-11-21T04:20:15;100167.00;;;8.20
64960;BMP180;51487;52.266;10.542;2023-11-21T04:22:42;100174.00;;;8.20
64960;BMP180;51487;52.266;10.542;2023-11-21T04:25:10;100168.00;;;8.30
64960;BMP180;51487;52.266;10.542;2023-11-21T04:27:41;100169.00;;;8.20
64960;BMP180;51487;52.266;10.542;2023-11-21T04:30:13;100175.00;;;8.30
64960;BMP180;51487;52.266;10.542;2023-11-21T04:32:39;100177.00;;;8.10
64960;BMP180;51487;52.266;10.542;2023-11-21T04:35:06;100174.00;;;8.10
64960;BMP180;51487;52.266;10.542;2023-11-21T04:37:31;100183.00;;;8.10
64960;BMP180;51487;52.266;10.542;2023-11-21T04:39:57;100179.00;;;8.20
64960;BMP180;51487;52.266;10.542;2023-11-21T04:42:22;100177.00;;;8.20
64960;BMP180;51487;52.266;10.542;2023-11-21T04:44:49;100190.00;;;8.20
64960;BMP180;51487;52.266;10.542;2023-11-21T04:47:14;100191.00;;;8.10
64960;BMP180;51487;52.266;10.542;2023-11-21T04:49:43;100195.00;;;8.20
64960;BMP180;51487;52.266;10.542;2023-11-21T04:52:09;100200.00;;;8.30
64960;BMP180;51487;52.266;10.542;2023-11-21T04:54:35;100203.00;;;8.20
64960;BMP180;51487;52.266;10.542;2023-11-21T04:57:01;100205.00;;;8.30
64960;BMP180;51487;52.266;10.542;2023-11-21T04:59:27;100215.00;;;8.20
64960;BMP180;51487;52.266;10.542;2023-11-21T05:01:53;100209.00;;;8.30
64960;BMP180;51487;52.266;10.542;2023-11-21T05:04:19;100214.00;;;8.30
64960;BMP180;51487;52.266;10.542;2023-11-21T05:06:47;100220.00;;;8.20
64960;BMP180;51487;52.266;10.542;2023-11-21T05:09:13;100217.00;;;8.20
64960;BMP180;51487;52.266;10.542;2023-11-21T05:11:39;100216.00;;;8.10
64960;BMP180;51487;52.266;10.542;2023-11-21T05:14:06;100220.00;;;7.90
64960;BMP180;51487;52.266;10.542;2023-11-21T05:16:32;100222.00;;;8.10
64960;BMP180;51487;52.266;10.542;2023-11-21T05:18:57;100238.00;;;8.10
64960;BMP180;51487;52.266;10.542;2023-11-21T05:21:26;100230.00;;;8.20
64960;BMP180;51487;52.266;10.542;2023-11-21T05:23:57;100243.00;;;8.10
64960;BMP180;51487;52.266;10.542;2023-11-21T05:26:22;100241.00;;;8.10
64960;BMP180;51487;52.266;10.542;2023-11-21T05:28:48;100256.00;;;8.20
64960;BMP180;51487;52.266;10.542;2023-11-21T05:31:13;100258.00;;;8.10
64960;BMP180;51487;52.266;10.542;2023-11-21T05:33:39;100259.00;;;8.10
64960;BMP180;51487;52.266;10.542;2023-11-21T05:36:04;100264.00;;;8.10
64960;BMP180;51487;52.266;10.542;2023-11-21T05:38:33;100254.00;;;8.20
64960;BMP180;51487;52.266;10.542;2023-11-21T05:40:59;100251.00;;;8.20
64960;BMP180;51487;52.266;10.542;2023-11-21T05:43:24;100259.00;;;8.10
64960;BMP180;51487;52.266;10.542;2023-11-21T05:45:50;100258.00;;;8.10
64960;BMP180;51487;52.266;10.542;2023-11-21T05:48:15;100262.00;;;7.90
64960;BMP180;51487;52.266;10.542;2023-11-21T05:50:41;100259.00;;;7.90
64960;BMP180;51487;52.266;10.542;2023-11-21T05:53:06;100265.00;;;8.00
64960;BMP180;51487;52.266;10.542;2023-11-21T05:55:32;100268.00;;;8.00
64960;BMP180;51487;52.266;10.542;2023-11-21T05:57:58;100268.00;;;8.00
64960;BMP180;51487;52.266;10.542;2023-11-21T06:00:23;100274.00;;;7.90
64960;BMP180;51487;52.266;10.542;2023-11-21T06:02:52;100277.00;;;7.80
64960;BMP180;51487;52.266;10.542;2023-11-21T06:05:20;100280.00;;;7.80
64960;BMP180;51487;52.266;10.542;2023-11-21T06:07:48;100287.00;;;7.80
64960;BMP180;51487;52.266;10.542;2023-11-21T06:10:14;100289.00;;;7.60
64960;BMP180;51487;52.266;10.542;2023-11-21T06:12:43;100295.00;;;7.60
64960;BMP180;51487;52.266;10.542;2023-11-21T06:15:09;100288.00;;;7.70
64960;BMP180;51487;52.266;10.542;2023-11-21T06:17:39;100304.00;;;7.70
64960;BMP180;51487;52.266;10.542;2023-11-21T06:20:06;100300.00;;;7.60
64960;BMP180;51487;52.266;10.542;2023-11-21T06:22:40;100309.00;;;7.60
64960;BMP180;51487;52.266;10.542;2023-11-21T06:25:08;100314.00;;;7.40
64960;BMP180;51487;52.266;10.542;2023-11-21T06:27:39;100315.00;;;7.30
64960;BMP180;51487;52.266;10.542;2023-11-21T06:30:06;100322.00;;;7.40
64960;BMP180;51487;52.266;10.542;2023-11-21T06:32:34;100322.00;;;7.30
64960;BMP180;51487;52.266;10.542;2023-11-21T06:35:05;100336.00;;;7.20
64960;BMP180;51487;52.266;10.542;2023-11-21T06:37:32;100341.00;;;7.20
64960;BMP180;51487;52.266;10.542;2023-11-21T06:39:59;100346.00;;;7.20
64960;BMP180;51487;52.266;10.542;2023-11-21T06:42:26;100338.00;;;7.10
64960;BMP180;51487;52.266;10.542;2023-11-21T06:44:52;100349.00;;;7.00
64960;BMP180;51487;52.266;10.542;2023-11-21T06:47:19;100353.00;;;6.90
64960;BMP180;51487;52.266;10.542;2023-11-21T06:49:50;100360.00;;;6.90
64960;BMP180;51487;52.266;10.542;2023-11-21T06:52:16;100368.00;;;6.80
64960;BMP180;51487;52.266;10.542;2023-11-21T06:54:43;100375.00;;;6.70
64960;BMP180;51487;52.266;10.542;2023-11-21T06:57:09;100378.00;;;6.60
64960;BMP180;51487;52.266;10.542;2023-11-21T06:59:34;100381.00;;;6.50
64960;BMP180;51487;52.266;10.542;2023-11-21T07:02:00;100393.00;;;6.40
64960;BMP180;51487;52.266;10.542;2023-11-21T07:04:25;100384.00;;;6.40
64960;BMP180;51487;52.266;10.542;2023-11-21T07:06:53;100388.00;;;6.40
64960;BMP180;51487;52.266;10.542;2023-11-21T07:09:18;100399.00;;;6.20
64960;BMP180;51487;52.266;10.542;2023-11-21T07:11:50;100407.00;;;6.30
64960;BMP180;51487;52.266;10.542;2023-11-21T07:14:15;100402.00;;;6.20
64960;BMP180;51487;52.266;10.542;2023-11-21T07:16:42;100407.00;;;6.20
64960;BMP180;51487;52.266;10.542;2023-11-21T07:19:08;100413.00;;;6.20
64960;BMP180;51487;52.266;10.542;2023-11-21T07:21:35;100405.00;;;6.40
64960;BMP180;51487;52.266;10.542;2023-11-21T07:24:02;100412.00;;;6.50
64960;BMP180;51487;52.266;10.542;2023-11-21T07:26:31;100431.00;;;6.50
64960;BMP180;51487;52.266;10.542;2023-11-21T07:28:58;100418.00;;;6.50
64960;BMP180;51487;52.266;10.542;2023-11-21T07:31:24;100428.00;;;6.50
64960;BMP180;51487;52.266;10.542;2023-11-21T07:33:50;100439.00;;;6.40
64960;BMP180;51487;52.266;10.542;2023-11-21T07:36:16;100428.00;;;6.40
64960;BMP180;51487;52.266;10.542;2023-11-21T07:38:49;100436.00;;;6.50
64960;BMP180;51487;52.266;10.542;2023-11-21T07:41:15;100447.00;;;6.40
64960;BMP180;51487;52.266;10.542;2023-11-21T07:43:43;100453.00;;;6.40
64960;BMP180;51487;52.266;10.542;2023-11-21T07:46:13;100454.00;;;6.40
64960;BMP180;51487;52.266;10.542;2023-11-21T07:48:40;100462.00;;;6.50
64960;BMP180;51487;52.266;10.542;2023-11-21T07:51:07;100460.00;;;6.40
64960;BMP180;51487;52.266;10.542;2023-11-21T07:53:34;100464.00;;;6.40
64960;BMP180;51487;52.266;10.542;2023-11-21T07:56:07;100475.00;;;6.40
64960;BMP180;51487;52.266;10.542;2023-11-21T07:58:34;100481.00;;;6.40
64960;BMP180;51487;52.266;10.542;2023-11-21T08:01:01;100488.00;;;6.40
64960;BMP180;51487;52.266;10.542;2023-11-21T08:03:28;100488.00;;;6.40
64960;BMP180;51487;52.266;10.542;2023-11-21T08:05:58;100489.00;;;6.20
64960;BMP180;51487;52.266;10.542;2023-11-21T08:08:24;100491.00;;;6.20
64960;BMP180;51487;52.266;10.542;2023-11-21T08:10:50;100498.00;;;6.20
64960;BMP180;51487;52.266;10.542;2023-11-21T08:15:49;100511.00;;;6.00
64960;BMP180;51487;52.266;10.542;2023-11-21T08:18:14;100510.00;;;6.20
64960;BMP180;51487;52.266;10.542;2023-11-21T08:20:41;100510.00;;;6.30
64960;BMP180;51487;52.266;10.542;2023-11-21T08:23:07;100507.00;;;6.10
64960;BMP180;51487;52.266;10.542;2023-11-21T08:25:32;100506.00;;;6.30
64960;BMP180;51487;52.266;10.542;2023-11-21T08:28:00;100523.00;;;6.40
64960;BMP180;51487;52.266;10.542;2023-11-21T08:30:25;100520.00;;;6.30
64960;BMP180;51487;52.266;10.542;2023-11-21T08:32:54;100516.00;;;6.50
64960;BMP180;51487;52.266;10.542;2023-11-21T08:35:23;100511.00;;;6.30
64960;BMP180;51487;52.266;10.542;2023-11-21T08:37:52;100531.00;;;6.40
64960;BMP180;51487;52.266;10.542;2023-11-21T08:40:19;100524.00;;;6.50
64960;BMP180;51487;52.266;10.542;2023-11-21T08:42:46;100527.00;;;6.40
64960;BMP180;51487;52.266;10.542;2023-11-21T08:45:12;100532.00;;;6.40
64960;BMP180;51487;52.266;10.542;2023-11-21T08:47:38;100538.00;;;6.50
64960;BMP180;51487;52.266;10.542;2023-11-21T08:50:06;100540.00;;;6.40
64960;BMP180;51487;52.266;10.542;2023-11-21T08:52:33;100549.00;;;6.50
64960;BMP180;51487;52.266;10.542;2023-11-21T08:54:59;100544.00;;;6.50
64960;BMP180;51487;52.266;10.542;2023-11-21T08:57:33;100553.00;;;6.50
64960;BMP180;51487;52.266;10.542;2023-11-21T09:00:00;100557.00;;;6.60
64960;BMP180;51487;52.266;10.542;2023-11-21T09:02:26;100555.00;;;6.60
64960;BMP180;51487;52.266;10.542;2023-11-21T09:04:52;100555.00;;;6.50
64960;BMP180;51487;52.266;10.542;2023-11-21T09:07:18;100559.00;;;6.50
64960;BMP180;51487;52.266;10.542;2023-11-21T09:09:46;100558.00;;;6.60
64960;BMP180;51487;52.266;10.542;2023-11-21T09:12:12;100567.00;;;6.60
64960;BMP180;51487;52.266;10.542;2023-11-21T09:14:38;100560.00;;;6.70
64960;BMP180;51487;52.266;10.542;2023-11-21T09:17:05;100558.00;;;6.70
64960;BMP180;51487;52.266;10.542;2023-11-21T09:19:37;100569.00;;;6.60
64960;BMP180;51487;52.266;10.542;2023-11-21T09:22:03;100571.00;;;6.50
64960;BMP180;51487;52.266;10.542;2023-11-21T09:24:30;100579.00;;;6.50
64960;BMP180;51487;52.266;10.542;2023-11-21T09:26:56;100583.00;;;6.60
64960;BMP180;51487;52.266;10.542;2023-11-21T09:29:22;100591.00;;;6.50
64960;BMP180;51487;52.266;10.542;2023-11-21T09:31:48;100593.00;;;6.50
64960;BMP180;51487;52.266;10.542;2023-11-21T09:34:16;100583.00;;;6.60
64960;BMP180;51487;52.266;10.542;2023-11-21T09:36:45;100596.00;;;6.60
64960;BMP180;51487;52.266;10.542;2023-11-21T09:39:10;100604.00;;;6.50
64960;BMP180;51487;52.266;10.542;2023-11-21T09:41:52;100610.00;;;6.50
64960;BMP180;51487;52.266;10.542;2023-11-21T09:44:35;100604.00;;;6.40
64960;BMP180;51487;52.266;10.542;2023-11-21T09:47:10;100612.00;;;6.50
64960;BMP180;51487;52.266;10.542;2023-11-21T09:49:42;100617.00;;;6.40
64960;BMP180;51487;52.266;10.542;2023-11-21T09:52:18;100619.00;;;6.40
64960;BMP180;51487;52.266;10.542;2023-11-21T09:54:50;100616.00;;;6.40
64960;BMP180;51487;52.266;10.542;2023-11-21T09:57:20;100625.00;;;6.50
64960;BMP180;51487;52.266;10.542;2023-11-21T09:59:53;100625.00;;;6.50
64960;BMP180;51487;52.266;10.542;2023-11-21T10:02:28;100630.00;;;6.60
64960;BMP180;51487;52.266;10.542;2023-11-21T10:04:56;100634.00;;;6.60
64960;BMP180;51487;52.266;10.542;2023-11-21T10:07:22;100631.00;;;6.70
64960;BMP180;51487;52.266;10.542;2023-11-21T10:09:51;100645.00;;;6.80
64960;BMP180;51487;52.266;10.542;2023-11-21T10:12:17;100648.00;;;6.70
64960;BMP180;51487;52.266;10.542;2023-11-21T10:14:46;100651.00;;;6.90
64960;BMP180;51487;52.266;10.542;2023-11-21T10:17:14;100668.00;;;6.90
64960;BMP180;51487;52.266;10.542;2023-11-21T10:19:47;100663.00;;;6.80
64960;BMP180;51487;52.266;10.542;2023-11-21T10:22:14;100665.00;;;6.70
64960;BMP180;51487;52.266;10.542;2023-11-21T10:24:41;100662.00;;;6.70
64960;BMP180;51487;52.266;10.542;2023-11-21T10:27:09;100662.00;;;6.50
64960;BMP180;51487;52.266;10.542;2023-11-21T10:29:34;100664.00;;;6.60
64960;BMP180;51487;52.266;10.542;2023-11-21T10:32:02;100676.00;;;6.70
64960;BMP180;51487;52.266;10.542;2023-11-21T10:34:28;100681.00;;;6.70
64960;BMP180;51487;52.266;10.542;2023-11-21T10:36:54;100676.00;;;6.70
64960;BMP180;51487;52.266;10.542;2023-11-21T10:39:23;100682.00;;;6.70
64960;BMP180;51487;52.266;10.542;2023-11-21T10:41:53;100675.00;;;6.70
64960;BMP180;51487;52.266;10.542;2023-11-21T10:44:19;100673.00;;;6.80
64960;BMP180;51487;52.266;10.542;2023-11-21T10:46:58;100680.00;;;6.80
64960;BMP180;51487;52.266;10.542;2023-11-21T10:49:28;100684.00;;;6.70
64960;BMP180;51487;52.266;10.542;2023-11-21T10:51:54;100687.00;;;6.90
64960;BMP180;51487;52.266;10.542;2023-11-21T10:54:21;100682.00;;;7.00
64960;BMP180;51487;52.266;10.542;2023-11-21T10:56:58;100698.00;;;7.00
64960;BMP180;51487;52.266;10.542;2023-11-21T10:59:28;100700.00;;;7.10
64960;BMP180;51487;52.266;10.542;2023-11-21T11:01:57;100702.00;;;7.10
64960;BMP180;51487;52.266;10.542;2023-11-21T11:04:27;100701.00;;;7.00
64960;BMP180;51487;52.266;10.542;2023-11-21T11:07:02;100704.00;;;7.10
64960;BMP180;51487;52.266;10.542;2023-11-21T11:09:31;100715.00;;;7.30
64960;BMP180;51487;52.266;10.542;2023-11-21T11:12:01;100707.00;;;7.20
64960;BMP180;51487;52.266;10.542;2023-11-21T11:14:28;100710.00;;;7.10
64960;BMP180;51487;52.266;10.542;2023-11-21T11:16:54;100713.00;;;7.20
64960;BMP180;51487;52.266;10.542;2023-11-21T11:19:21;100715.00;;;7.20
64960;BMP180;51487;52.266;10.542;2023-11-21T11:21:57;100711.00;;;7.20
64960;BMP180;51487;52.266;10.542;2023-11-21T11:33:38;100724.00;;;7.20
64960;BMP180;51487;52.266;10.542;2023-11-21T11:36:17;100734.00;;;7.10
64960;BMP180;51487;52.266;10.542;2023-11-21T11:38:46;100739.00;;;7.10
64960;BMP180;51487;52.266;10.542;2023-11-21T11:41:27;100735.00;;;7.20
64960;BMP180;51487;52.266;10.542;2023-11-21T11:43:59;100745.00;;;7.20
64960;BMP180;51487;52.266;10.542;2023-11-21T11:46:42;100746.00;;;7.30
64960;BMP180;51487;52.266;10.542;2023-11-21T11:49:08;100754.00;;;7.30
64960;BMP180;51487;52.266;10.542;2023-11-21T11:51:34;100752.00;;;7.30
64960;BMP180;51487;52.266;10.542;2023-11-21T11:54:01;100753.00;;;7.10
64960;BMP180;51487;52.266;10.542;2023-11-21T11:56:33;100748.00;;;7.10
64960;BMP180;51487;52.266;10.542;2023-11-21T11:59:04;100754.00;;;7.10
64960;BMP180;51487;52.266;10.542;2023-11-21T12:01:34;100768.00;;;7.10
64960;BMP180;51487;52.266;10.542;2023-11-21T12:06:52;100759.00;;;7.10
64960;BMP180;51487;52.266;10.542;2023-11-21T12:09:22;100768.00;;;7.30
64960;BMP180;51487;52.266;10.542;2023-11-21T12:11:49;100758.00;;;7.20
64960;BMP180;51487;52.266;10.542;2023-11-21T12:14:16;100763.00;;;7.30
64960;BMP180;51487;52.266;10.542;2023-11-21T12:16:43;100763.00;;;7.40
64960;BMP180;51487;52.266;10.542;2023-11-21T12:19:10;100774.00;;;7.30
64960;BMP180;51487;52.266;10.542;2023-11-21T12:21:36;100782.00;;;7.20
64960;BMP180;51487;52.266;10.542;2023-11-21T12:24:02;100780.00;;;7.30
64960;BMP180;51487;52.266;10.542;2023-11-21T12:26:29;100781.00;;;7.20
64960;BMP180;51487;52.266;10.542;2023-11-21T12:28:55;100781.00;;;7.20
64960;BMP180;51487;52.266;10.542;2023-11-21T12:31:23;100793.00;;;7.30
64960;BMP180;51487;52.266;10.542;2023-11-21T12:33:49;100792.00;;;7.10
64960;BMP180;51487;52.266;10.542;2023-11-21T12:36:16;100802.00;;;7.30
64960;BMP180;51487;52.266;10.542;2023-11-21T12:38:42;100808.00;;;7.10
64960;BMP180;51487;52.266;10.542;2023-11-21T12:41:09;100809.00;;;7.10
64960;BMP180;51487;52.266;10.542;2023-11-21T12:43:35;100825.00;;;7.20
64960;BMP180;51487;52.266;10.542;2023-11-21T12:46:10;100818.00;;;7.10
64960;BMP180;51487;52.266;10.542;2023-11-21T12:48:41;100817.00;;;7.00
64960;BMP180;51487;52.266;10.542;2023-11-21T12:51:10;100828.00;;;6.80
64960;BMP180;51487;52.266;10.542;2023-11-21T12:53:37;100823.00;;;6.80
64960;BMP180;51487;52.266;10.542;2023-11-21T12:56:10;100830.00;;;7.00
64960;BMP180;51487;52.266;10.542;2023-11-21T12:58:40;100831.00;;;6.90
64960;BMP180;51487;52.266;10.542;2023-11-21T13:01:13;100827.00;;;6.90
64960;BMP180;51487;52.266;10.542;2023-11-21T13:03:46;100829.00;;;6.80
64960;BMP180;51487;52.266;10.542;2023-11-21T13:06:14;100825.00;;;6.80
64960;BMP180;51487;52.266;10.542;2023-11-21T13:08:41;100827.00;;;6.80
64960;BMP180;51487;52.266;10.542;2023-11-21T13:11:10;100829.00;;;6.90
64960;BMP180;51487;52.266;10.542;2023-11-21T13:13:36;100849.00;;;7.00
64960;BMP180;51487;52.266;10.542;2023-11-21T13:16:07;100838.00;;;7.00
64960;BMP180;51487;52.266;10.542;2023-11-21T13:18:33;100850.00;;;7.00
64960;BMP180;51487;52.266;10.542;2023-11-21T13:21:02;100854.00;;;6.80
64960;BMP180;51487;52.266;10.542;2023-11-21T13:23:35;100863.00;;;6.90
64960;BMP180;51487;52.266;10.542;2023-11-21T13:26:02;100853.00;;;6.90
64960;BMP180;51487;52.266;10.542;2023-11-21T13:28:32;100853.00;;;7.00
64960;BMP180;51487;52.266;10.542;2023-11-21T13:30:59;100860.00;;;7.00
64960;BMP180;51487;52.266;10.542;2023-11-21T13:33:35;100858.00;;;6.80
64960;BMP180;51487;52.266;10.542;2023-11-21T13:36:04;100861.00;;;6.70
64960;BMP180;51487;52.266;10.542;2023-11-21T13:38:33;100865.00;;;6.70
64960;BMP180;51487;52.266;10.542;2023-11-21T13:41:00;100860.00;;;6.70
64960;BMP180;51487;52.266;10.542;2023-11-21T13:43:26;100869.00;;;6.80
64960;BMP180;51487;52.266;10.542;2023-11-21T13:45:54;100883.00;;;6.80
64960;BMP180;51487;52.266;10.542;2023-11-21T13:48:38;100882.00;;;6.60
64960;BMP180;51487;52.266;10.542;2023-11-21T13:51:09;100898.00;;;6.60
64960;BMP180;51487;52.266;10.542;2023-11-21T13:53:46;100897.00;;;6.60
64960;BMP180;51487;52.266;10.542;2023-11-21T13:56:15;100897.00;;;6.60
64960;BMP180;51487;52.266;10.542;2023-11-21T13:58:45;100904.00;;;6.60
64960;BMP180;51487;52.266;10.542;2023-11-21T14:01:24;100901.00;;;6.60
64960;BMP180;51487;52.266;10.542;2023-11-21T14:04:01;100901.00;;;6.50
64960;BMP180;51487;52.266;10.542;2023-11-21T14:06:49;100912.00;;;6.50
64960;BMP180;51487;52.266;10.542;2023-11-21T14:09:23;100921.00;;;6.50
64960;BMP180;51487;52.266;10.542;2023-11-21T14:11:58;100935.00;;;6.60
64960;BMP180;51487;52.266;10.542;2023-11-21T14:14:27;100948.00;;;6.50